Time;durP1;ratioP1;P1;durP2;ratioP2;P2;SDS_P1;SDS_P2;PMS_P1;PMS_P2;Temp;Humidity;BMP_temperature;BMP_pressure;BME280_temperature;BME280_humidity;BME280_pressure;Samples;Min_cycle;Max_cycle;Signal;HPM_P1;HPM_P2
2020/12/10 00:02:28;;;;;;;1.95;1.17;;;4.00;92.10;;;;;;5079518;28;20028;-72
2020/12/10 00:04:55;;;;;;;0.90;0.63;;;4.00;92.50;;;;;;5079758;28;20356;-72
2020/12/10 00:07:22;;;;;;;2.45;0.85;;;3.90;92.60;;;;;;5079343;28;20032;-72
2020/12/10 00:09:49;;;;;;;0.93;0.70;;;3.90;92.60;;;;;;5079606;28;20021;-71
2020/12/10 00:12:14;;;;;;;1.20;0.80;;;3.90;92.60;;;;;;5079327;28;20073;-71
2020/12/10 00:14:40;;;;;;;0.90;0.60;;;4.00;92.90;;;;;;5079223;28;20092;-71
2020/12/10 00:17:06;;;;;;;1.55;0.88;;;4.00;92.20;;;;;;5079231;28;20439;-72
2020/12/10 00:19:31;;;;;;;1.25;0.80;;;4.00;92.40;;;;;;5079408;28;20025;-71
2020/12/10 00:21:57;;;;;;;1.02;0.80;;;3.90;92.50;;;;;;5079148;28;20024;-72
2020/12/10 00:24:23;;;;;;;2.00;1.10;;;3.90;92.70;;;;;;5079332;28;20039;-71
2020/12/10 00:26:49;;;;;;;2.30;1.35;;;3.80;92.90;;;;;;5077851;28;20080;-71
2020/12/10 00:29:15;;;;;;;2.03;1.33;;;3.70;92.50;;;;;;5079307;28;20040;-72
2020/12/10 00:31:42;;;;;;;2.00;1.13;;;3.60;92.40;;;;;;5078973;28;20029;-72
2020/12/10 00:34:08;;;;;;;1.60;0.95;;;3.50;92.00;;;;;;5078900;28;20297;-71
2020/12/10 00:36:33;;;;;;;1.63;1.20;;;3.50;92.10;;;;;;5078882;28;20035;-72
2020/12/10 00:38:59;;;;;;;1.88;1.15;;;3.40;92.70;;;;;;5078856;28;20054;-71
2020/12/10 00:41:25;;;;;;;1.48;1.13;;;3.40;92.30;;;;;;5078809;28;20044;-71
2020/12/10 00:43:50;;;;;;;2.00;1.13;;;3.40;91.80;;;;;;5078696;28;20077;-71
2020/12/10 00:46:16;;;;;;;1.70;1.10;;;3.40;91.60;;;;;;5078617;28;20328;-71
2020/12/10 00:48:42;;;;;;;2.10;1.48;;;3.30;91.80;;;;;;5078727;28;20021;-71
2020/12/10 00:51:08;;;;;;;2.08;1.63;;;3.20;92.30;;;;;;5078645;28;20035;-71
2020/12/10 00:53:34;;;;;;;3.13;2.15;;;3.10;92.60;;;;;;5078478;28;20036;-71
2020/12/10 00:56:00;;;;;;;2.38;1.80;;;3.10;93.30;;;;;;5060728;28;20033;-72
2020/12/10 00:58:25;;;;;;;3.00;1.75;;;3.20;92.80;;;;;;5078485;28;20020;-72
2020/12/10 01:00:52;;;;;;;2.03;1.70;;;3.20;92.60;;;;;;5060834;28;20400;-71
2020/12/10 01:03:18;;;;;;;2.58;2.00;;;3.30;92.40;;;;;;5078372;28;20021;-71
2020/12/10 01:05:45;;;;;;;2.05;1.63;;;3.30;92.40;;;;;;5078198;28;20055;-71
2020/12/10 01:08:12;;;;;;;2.50;1.67;;;3.30;92.10;;;;;;5078299;28;20031;-71
2020/12/10 01:10:37;;;;;;;2.03;1.55;;;3.30;92.40;;;;;;5060478;28;20025;-71
2020/12/10 01:13:04;;;;;;;2.13;1.10;;;3.30;92.20;;;;;;5078258;28;20020;-71
2020/12/10 01:15:29;;;;;;;2.38;1.63;;;3.20;92.30;;;;;;5078053;28;20047;-71
2020/12/10 01:17:55;;;;;;;2.45;2.00;;;3.20;92.70;;;;;;5078063;28;20405;-71
2020/12/10 01:20:21;;;;;;;3.33;1.85;;;3.30;93.20;;;;;;5078008;28;20035;-71
2020/12/10 01:22:46;;;;;;;2.67;1.80;;;3.40;92.70;;;;;;5077905;28;20070;-71
2020/12/10 01:25:12;;;;;;;2.95;1.60;;;3.40;92.60;;;;;;5060057;28;20340;-71
2020/12/10 01:27:37;;;;;;;1.80;1.50;;;3.40;92.70;;;;;;5077750;28;20033;-71
2020/12/10 01:30:07;;;;;;;1.83;1.30;;;3.40;92.80;;;;;;5077806;28;20032;-71
2020/12/10 01:32:33;;;;;;;1.42;0.95;;;3.40;92.90;;;;;;5077742;28;20036;-71
2020/12/10 01:34:59;;;;;;;1.52;1.00;;;3.40;92.50;;;;;;5077648;28;20028;-71
2020/12/10 01:37:25;;;;;;;2.13;0.80;;;3.50;92.00;;;;;;5059793;28;20435;-71
2020/12/10 01:39:51;;;;;;;1.02;0.65;;;3.60;92.10;;;;;;5077848;28;20028;-71
2020/12/10 01:42:17;;;;;;;1.33;0.90;;;3.60;92.20;;;;;;5077572;28;20025;-71
2020/12/10 01:44:43;;;;;;;2.40;1.58;;;3.70;92.00;;;;;;5078344;28;20439;-71
2020/12/10 01:47:09;;;;;;;1.17;0.80;;;3.80;91.90;;;;;;5077405;28;20103;-71
2020/12/10 01:49:38;;;;;;;1.10;0.80;;;3.90;91.40;;;;;;5077420;28;20446;-72
2020/12/10 01:52:05;;;;;;;0.90;0.60;;;4.00;91.30;;;;;;5077548;28;20027;-71
2020/12/10 01:54:31;;;;;;;1.50;1.10;;;4.00;91.20;;;;;;5077681;28;20032;-71
2020/12/10 01:56:57;;;;;;;1.42;1.05;;;4.10;90.50;;;;;;5077305;28;20032;-72
2020/12/10 01:59:23;;;;;;;1.67;1.08;;;4.20;90.60;;;;;;5077355;28;20316;-71
2020/12/10 02:01:53;;;;;;;1.52;1.02;;;4.30;90.60;;;;;;5077155;28;20029;-71
2020/12/10 02:04:26;;;;;;;1.50;1.23;;;4.30;91.00;;;;;;5077260;28;20355;-71
2020/12/10 02:06:52;;;;;;;2.38;1.27;;;4.40;91.30;;;;;;5077042;28;20029;-72
2020/12/10 02:09:18;;;;;;;1.63;1.30;;;4.40;90.90;;;;;;5077444;28;20418;-71
2020/12/10 02:11:44;;;;;;;2.70;1.27;;;4.40;91.10;;;;;;5077092;28;20431;-71
2020/12/10 02:14:09;;;;;;;1.90;1.50;;;4.40;91.00;;;;;;5077007;28;20021;-71
2020/12/10 02:16:35;;;;;;;2.10;1.65;;;4.40;90.70;;;;;;5076950;28;20408;-71
2020/12/10 02:19:01;;;;;;;1.80;1.52;;;4.40;89.70;;;;;;5077173;28;20029;-71
2020/12/10 02:21:26;;;;;;;2.42;1.75;;;4.40;89.30;;;;;;5076905;28;20103;-71
2020/12/10 02:23:56;;;;;;;2.30;1.80;;;4.40;89.30;;;;;;5077390;28;20050;-71
2020/12/10 02:26:22;;;;;;;1.88;1.40;;;4.40;88.90;;;;;;5076646;28;20445;-71
2020/12/10 02:28:48;;;;;;;2.15;1.58;;;4.50;88.40;;;;;;5076854;28;20099;-71
2020/12/10 02:31:21;;;;;;;3.45;1.42;;;4.50;88.20;;;;;;5076832;28;20036;-71
2020/12/10 02:33:46;;;;;;;1.42;1.00;;;4.60;87.60;;;;;;5076763;28;20107;-71
2020/12/10 02:36:12;;;;;;;1.98;1.40;;;4.70;87.60;;;;;;5058977;28;20044;-71
2020/12/10 02:38:38;;;;;;;1.98;1.35;;;4.70;87.90;;;;;;5076766;28;20029;-71
2020/12/10 02:41:03;;;;;;;1.65;1.38;;;4.60;87.80;;;;;;5076735;28;20017;-71
2020/12/10 02:43:29;;;;;;;1.40;1.20;;;4.60;88.30;;;;;;5076692;28;20349;-71
2020/12/10 02:45:55;;;;;;;2.42;1.23;;;4.70;87.60;;;;;;5058736;28;20036;-71
2020/12/10 02:48:20;;;;;;;1.75;1.10;;;4.70;87.80;;;;;;5076714;28;20031;-71
2020/12/10 02:50:46;;;;;;;1.35;1.02;;;4.70;88.30;;;;;;5076116;28;20021;-71
2020/12/10 02:53:11;;;;;;;1.65;0.93;;;4.70;88.70;;;;;;5076505;28;20025;-71
2020/12/10 02:55:37;;;;;;;1.33;1.08;;;4.80;88.20;;;;;;5076526;28;20044;-71
2020/12/10 02:58:04;;;;;;;3.03;1.40;;;4.80;88.00;;;;;;5076568;28;20020;-71
2020/12/10 03:00:30;;;;;;;1.50;1.30;;;4.80;88.40;;;;;;5076531;28;20016;-71
2020/12/10 03:02:56;;;;;;;2.58;1.25;;;4.80;87.70;;;;;;5076531;28;20324;-71
2020/12/10 03:05:23;;;;;;;1.80;1.35;;;4.80;88.40;;;;;;5058681;28;20049;-71
2020/12/10 03:07:48;;;;;;;3.35;1.50;;;4.80;89.10;;;;;;5076358;28;20028;-71
2020/12/10 03:10:14;;;;;;;3.38;1.35;;;4.80;89.20;;;;;;5076453;28;20297;-71
2020/12/10 03:12:40;;;;;;;1.23;1.00;;;4.90;89.20;;;;;;5076436;28;20107;-71
2020/12/10 03:15:05;;;;;;;1.13;0.93;;;4.90;89.00;;;;;;5076374;28;20023;-72
2020/12/10 03:17:31;;;;;;;1.80;1.02;;;4.90;88.40;;;;;;5058587;28;20424;-71
2020/12/10 03:19:57;;;;;;;1.80;1.15;;;4.90;89.50;;;;;;5058606;28;20094;-71
2020/12/10 03:22:23;;;;;;;3.05;1.27;;;4.90;90.10;;;;;;5058710;28;20044;-71
2020/12/10 03:24:48;;;;;;;1.60;1.40;;;4.90;90.00;;;;;;5058422;28;20033;-72
2020/12/10 03:27:14;;;;;;;1.58;1.25;;;4.90;90.40;;;;;;5076211;28;20332;-72
2020/12/10 03:29:42;;;;;;;1.45;1.08;;;4.80;90.80;;;;;;5076600;28;20021;-72
2020/12/10 03:32:07;;;;;;;1.33;1.10;;;4.80;90.70;;;;;;5058975;28;20100;-72
2020/12/10 03:34:33;;;;;;;1.30;0.90;;;4.70;90.40;;;;;;5076132;28;20056;-71
2020/12/10 03:37:00;;;;;;;1.27;0.90;;;4.70;90.20;;;;;;5076186;28;20413;-72
2020/12/10 03:39:30;;;;;;;1.40;0.90;;;4.70;90.30;;;;;;5076669;28;20032;-71
2020/12/10 03:41:58;;;;;;;1.70;1.10;;;4.70;91.30;;;;;;5058345;28;20428;-71
2020/12/10 03:44:24;;;;;;;2.28;1.10;;;4.70;90.60;;;;;;5076038;28;20056;-72
2020/12/10 03:46:49;;;;;;;1.88;1.40;;;4.70;89.90;;;;;;5075994;28;20101;-71
2020/12/10 03:49:15;;;;;;;1.70;1.27;;;4.80;88.50;;;;;;5058337;28;20396;-71
2020/12/10 03:51:41;;;;;;;2.05;1.08;;;4.80;88.60;;;;;;5076448;28;20085;-71
2020/12/10 03:54:07;;;;;;;1.73;1.17;;;4.90;88.70;;;;;;5058145;28;20036;-71
2020/12/10 03:56:32;;;;;;;1.50;1.10;;;4.90;89.00;;;;;;5076040;28;20024;-72
2020/12/10 03:59:03;;;;;;;1.83;1.50;;;4.90;88.80;;;;;;5076001;28;20054;-72
2020/12/10 04:01:28;;;;;;;1.85;1.55;;;5.00;89.00;;;;;;5076858;28;20078;-71
2020/12/10 04:03:54;;;;;;;1.35;1.05;;;4.90;89.40;;;;;;5079439;28;20028;-71
2020/12/10 04:06:20;;;;;;;1.40;1.00;;;4.90;89.90;;;;;;5079395;28;20024;-71
2020/12/10 04:08:46;;;;;;;1.17;0.90;;;4.90;90.10;;;;;;5079472;28;20039;-71
2020/12/10 04:11:15;;;;;;;1.35;1.10;;;4.90;89.50;;;;;;5079412;28;20035;-71
2020/12/10 04:13:43;;;;;;;1.27;1.00;;;4.80;89.40;;;;;;5079270;28;20345;-71
2020/12/10 04:16:09;;;;;;;1.08;0.75;;;4.80;89.30;;;;;;5061609;28;20116;-72
2020/12/10 04:18:39;;;;;;;1.33;0.80;;;4.80;89.30;;;;;;5079520;28;20028;-71
2020/12/10 04:21:09;;;;;;;4.38;0.90;;;4.80;89.20;;;;;;5079752;28;20043;-71
2020/12/10 04:23:35;;;;;;;1.60;0.90;;;4.80;89.70;;;;;;5061845;28;20044;-71
2020/12/10 04:26:01;;;;;;;1.70;0.95;;;4.80;90.20;;;;;;5078665;28;20045;-71
2020/12/10 04:28:27;;;;;;;1.98;1.02;;;4.80;90.00;;;;;;5061303;28;20020;-71
2020/12/10 04:30:53;;;;;;;1.08;0.80;;;4.80;89.50;;;;;;5061522;28;20037;-71
2020/12/10 04:33:19;;;;;;;1.10;0.77;;;4.80;89.50;;;;;;5078972;28;20431;-72
2020/12/10 04:35:45;;;;;;;1.45;1.00;;;4.70;89.10;;;;;;5061117;28;20025;-71
2020/12/10 04:38:11;;;;;;;1.42;0.93;;;4.70;89.10;;;;;;5061215;28;20322;-71
2020/12/10 04:40:37;;;;;;;1.20;0.90;;;4.70;89.20;;;;;;5078825;28;20024;-71
2020/12/10 04:43:05;;;;;;;0.90;0.63;;;4.60;88.50;;;;;;5078794;28;20045;-71
2020/12/10 04:45:31;;;;;;;1.27;0.70;;;4.70;88.60;;;;;;5078873;28;20335;-71
2020/12/10 04:47:58;;;;;;;1.63;0.85;;;4.70;88.80;;;;;;5078753;28;20025;-71
2020/12/10 04:50:25;;;;;;;1.02;0.82;;;4.60;89.70;;;;;;5078667;28;20024;-71
2020/12/10 04:52:52;;;;;;;1.08;0.60;;;4.60;89.90;;;;;;5078605;28;20044;-71
2020/12/10 04:55:19;;;;;;;1.13;0.85;;;4.50;89.40;;;;;;5044253;28;20038;-71
2020/12/10 04:57:45;;;;;;;1.75;1.00;;;4.40;89.40;;;;;;5061015;28;20348;-71
2020/12/10 05:00:16;;;;;;;0.98;0.70;;;4.40;89.40;;;;;;5060774;28;20032;-72
2020/12/10 05:02:45;;;;;;;1.60;1.17;;;4.30;89.00;;;;;;5078446;28;20024;-71
2020/12/10 05:05:20;;;;;;;1.77;1.20;;;4.20;89.20;;;;;;5060542;28;20025;-71
2020/12/10 05:07:47;;;;;;;1.98;1.00;;;4.10;89.70;;;;;;5078258;28;20025;-71
2020/12/10 05:10:13;;;;;;;1.70;1.17;;;4.00;89.50;;;;;;5060665;28;20025;-71
2020/12/10 05:12:39;;;;;;;2.47;1.40;;;4.00;89.40;;;;;;5078011;28;20025;-71
2020/12/10 05:15:05;;;;;;;1.65;1.30;;;4.00;90.10;;;;;;5078088;28;20312;-71
2020/12/10 05:17:31;;;;;;;1.45;1.15;;;4.00;90.20;;;;;;5078119;28;20392;-71
2020/12/10 05:19:58;;;;;;;3.05;1.13;;;4.10;90.10;;;;;;5078128;28;20049;-71
2020/12/10 05:22:24;;;;;;;1.92;1.20;;;4.00;90.50;;;;;;5078000;28;20058;-71
2020/12/10 05:25:04;;;;;;;1.83;1.33;;;4.10;90.80;;;;;;5077564;28;20060;-72
2020/12/10 05:27:32;;;;;;;1.65;1.10;;;4.10;91.20;;;;;;5077797;28;20032;-71
2020/12/10 05:30:01;;;;;;;2.55;0.90;;;4.10;90.70;;;;;;5078170;28;20340;-71
2020/12/10 05:32:34;;;;;;;1.73;1.13;;;4.20;91.20;;;;;;5077561;28;20115;-71
2020/12/10 05:35:20;;;;;;;2.03;1.27;;;4.20;91.30;;;;;;5077773;28;20024;-71
2020/12/10 05:37:47;;;;;;;1.90;0.93;;;4.30;90.80;;;;;;5077870;28;20025;-71
2020/12/10 05:40:13;;;;;;;2.33;1.52;;;4.30;91.40;;;;;;5060200;28;20036;-71
2020/12/10 05:42:50;;;;;;;2.25;1.67;;;4.20;89.70;;;;;;5077576;28;20029;-71
2020/12/10 05:45:17;;;;;;;11.05;6.07;;;4.30;88.30;;;;;;5077601;28;20169;-71
2020/12/10 05:47:50;;;;;;;48.38;26.95;;;4.30;87.60;;;;;;5077404;28;20025;-71
2020/12/10 05:50:24;;;;;;;6.53;4.32;;;4.30;87.40;;;;;;5077513;28;20039;-71
2020/12/10 05:52:59;;;;;;;66.65;40.78;;;4.30;86.60;;;;;;5077539;28;20316;-71
2020/12/10 05:55:25;;;;;;;31.92;22.55;;;4.30;87.00;;;;;;5077264;28;20131;-71
2020/12/10 05:57:51;;;;;;;2.65;1.80;;;4.30;88.70;;;;;;5077583;28;20435;-71
2020/12/10 06:00:16;;;;;;;2.40;1.70;;;4.30;89.00;;;;;;5077281;28;20041;-71
2020/12/10 06:02:42;;;;;;;2.40;1.60;;;4.30;88.90;;;;;;5077267;28;20021;-71
2020/12/10 06:05:09;;;;;;;2.28;1.77;;;4.30;89.50;;;;;;5077123;28;20369;-71
2020/12/10 06:07:35;;;;;;;2.60;1.75;;;4.30;90.20;;;;;;5077027;28;20028;-71
2020/12/10 06:10:01;;;;;;;2.03;1.40;;;4.40;90.40;;;;;;5077154;28;20449;-71
2020/12/10 06:12:27;;;;;;;5.20;1.58;;;4.50;90.60;;;;;;5077070;28;20099;-71
2020/12/10 06:14:54;;;;;;;3.67;2.53;;;4.50;90.00;;;;;;5077036;28;20111;-71
2020/12/10 06:17:25;;;;;;;3.13;2.22;;;4.60;88.50;;;;;;5077014;28;20036;-72
2020/12/10 06:19:51;;;;;;;3.13;2.38;;;4.60;88.90;;;;;;5077222;28;20082;-71
2020/12/10 06:22:29;;;;;;;2.90;2.50;;;4.60;89.20;;;;;;5076941;28;20363;-71
2020/12/10 06:24:56;;;;;;;2.03;1.83;;;4.60;89.40;;;;;;5076200;28;20075;-72
2020/12/10 06:27:33;;;;;;;2.00;1.50;;;4.60;89.70;;;;;;5076842;28;20320;-71
2020/12/10 06:30:13;;;;;;;1.67;1.35;;;4.60;90.90;;;;;;5077185;28;20016;-71
2020/12/10 06:32:43;;;;;;;1.55;1.20;;;4.60;90.90;;;;;;5077008;28;20017;-71
2020/12/10 06:35:39;;;;;;;1.55;1.15;;;4.60;91.00;;;;;;5076724;28;20412;-71
2020/12/10 06:38:06;;;;;;;3.90;1.20;;;4.50;90.90;;;;;;5059454;28;20040;-71
2020/12/10 06:40:41;;;;;;;3.92;1.10;;;4.50;90.80;;;;;;5076810;28;20029;-71
2020/12/10 06:43:11;;;;;;;1.75;1.08;;;4.50;90.20;;;;;;5076843;28;20048;-71
2020/12/10 06:45:39;;;;;;;1.30;1.02;;;4.50;90.00;;;;;;5076559;28;20029;-71
2020/12/10 06:48:10;;;;;;;1.70;1.02;;;4.50;90.40;;;;;;5076722;28;20032;-71
2020/12/10 06:50:42;;;;;;;1.92;0.90;;;4.60;90.30;;;;;;5076668;28;20051;-71
2020/12/10 06:53:21;;;;;;;1.50;1.02;;;4.60;89.70;;;;;;5076599;28;20009;-71
2020/12/10 06:56:00;;;;;;;1.52;0.90;;;4.60;89.10;;;;;;5076511;28;20048;-71
2020/12/10 06:58:34;;;;;;;3.60;0.95;;;4.70;88.40;;;;;;5076669;28;20044;-71
2020/12/10 07:01:17;;;;;;;1.60;1.10;;;4.70;88.00;;;;;;5076820;28;20103;-71
2020/12/10 07:03:44;;;;;;;1.40;0.93;;;4.80;88.60;;;;;;5076439;28;20309;-71
2020/12/10 07:06:18;;;;;;;1.35;0.90;;;4.80;88.80;;;;;;5058983;28;20024;-71
2020/12/10 07:09:04;;;;;;;1.95;0.90;;;4.80;89.10;;;;;;5076509;28;20025;-71
2020/12/10 07:11:32;;;;;;;1.58;1.00;;;4.80;88.00;;;;;;5076494;28;20017;-71
2020/12/10 07:13:58;;;;;;;1.85;0.95;;;4.90;88.90;;;;;;5076337;28;20036;-71
2020/12/10 07:16:32;;;;;;;1.30;0.98;;;4.90;87.70;;;;;;5076401;28;20044;-71
2020/12/10 07:18:58;;;;;;;1.27;0.85;;;4.90;88.10;;;;;;5076603;28;20099;-71
2020/12/10 07:21:24;;;;;;;1.02;0.80;;;4.90;87.90;;;;;;5076338;28;20021;-71
2020/12/10 07:23:52;;;;;;;1.00;0.75;;;4.90;88.00;;;;;;5076591;28;20315;-71
2020/12/10 07:26:21;;;;;;;1.73;1.00;;;4.90;88.00;;;;;;5058558;28;20045;-71
2020/12/10 07:28:51;;;;;;;3.28;1.00;;;5.00;87.70;;;;;;5076303;28;20025;-72
2020/12/10 07:31:17;;;;;;;1.75;1.00;;;5.00;87.40;;;;;;5058843;28;20116;-71
2020/12/10 07:33:44;;;;;;;1.45;0.77;;;5.10;88.30;;;;;;5076172;28;20028;-71
2020/12/10 07:36:11;;;;;;;2.28;1.10;;;5.10;88.00;;;;;;5078183;28;20025;-71
2020/12/10 07:38:37;;;;;;;1.60;1.00;;;5.10;88.90;;;;;;5062295;28;20039;-71
2020/12/10 07:41:03;;;;;;;1.55;1.02;;;5.10;89.00;;;;;;5079948;28;20420;-71
2020/12/10 07:43:30;;;;;;;2.33;1.40;;;5.10;87.60;;;;;;5079937;28;20024;-72
2020/12/10 07:45:55;;;;;;;1.98;1.40;;;5.00;86.80;;;;;;5062161;28;20324;-71
2020/12/10 07:48:21;;;;;;;2.83;1.55;;;5.10;87.60;;;;;;5079820;28;20021;-71
2020/12/10 07:50:49;;;;;;;1.48;1.17;;;5.10;85.90;;;;;;5080116;28;20016;-71
2020/12/10 07:53:15;;;;;;;2.00;1.27;;;5.10;86.60;;;;;;5062231;28;20436;-71
2020/12/10 07:55:53;;;;;;;1.75;1.33;;;5.20;86.90;;;;;;5079680;28;20056;-71
2020/12/10 07:58:33;;;;;;;2.83;1.40;;;5.20;86.30;;;;;;5079982;28;20340;-71
2020/12/10 08:01:05;;;;;;;1.52;1.20;;;5.20;87.10;;;;;;5079634;28;20020;-71
2020/12/10 08:03:51;;;;;;;2.03;1.20;;;5.30;87.60;;;;;;5079585;28;20466;-71
2020/12/10 08:06:17;;;;;;;2.03;1.48;;;5.30;87.00;;;;;;5061759;28;20028;-72
2020/12/10 08:09:06;;;;;;;2.10;1.20;;;5.30;87.20;;;;;;5079468;28;20075;-71
2020/12/10 08:11:32;;;;;;;2.97;1.30;;;5.30;86.40;;;;;;5078789;28;20028;-71
2020/12/10 08:14:07;;;;;;;1.85;1.10;;;5.30;87.30;;;;;;5079244;28;20024;-71
2020/12/10 08:16:37;;;;;;;1.52;1.30;;;5.30;87.50;;;;;;5079379;28;20458;-71
2020/12/10 08:19:38;;;;;;;1.80;1.20;;;5.30;87.40;;;;;;5079531;28;20407;-71
2020/12/10 08:22:14;;;;;;;1.33;1.17;;;5.30;87.60;;;;;;5061452;28;20032;-71
2020/12/10 08:24:45;;;;;;;1.63;1.17;;;5.30;86.60;;;;;;5079158;28;20374;-72
2020/12/10 08:27:13;;;;;;;1.48;1.23;;;5.40;87.70;;;;;;5079389;28;20039;-71
2020/12/10 08:29:39;;;;;;;1.67;1.17;;;5.40;88.00;;;;;;5061329;28;20108;-71
2020/12/10 08:32:12;;;;;;;2.03;1.30;;;5.40;88.00;;;;;;5061299;28;20020;-71
2020/12/10 08:34:40;;;;;;;1.85;1.20;;;5.50;86.50;;;;;;5061123;28;20039;-71
2020/12/10 08:37:10;;;;;;;2.05;1.45;;;5.50;85.20;;;;;;5078897;28;20052;-71
2020/12/10 08:39:38;;;;;;;2.85;1.65;;;5.50;85.60;;;;;;5079155;28;20029;-71
2020/12/10 08:42:07;;;;;;;2.33;1.40;;;5.50;85.40;;;;;;5079122;28;20355;-71
2020/12/10 08:44:49;;;;;;;2.72;1.90;;;5.50;86.10;;;;;;5078716;28;20031;-71
2020/12/10 08:47:24;;;;;;;2.17;1.60;;;5.60;86.90;;;;;;5078115;28;20031;-71
2020/12/10 08:50:06;;;;;;;2.05;1.40;;;5.70;87.40;;;;;;5078963;28;20384;-71
2020/12/10 08:53:11;;;;;;;2.17;1.50;;;5.70;86.60;;;;;;5078777;28;20023;-71
2020/12/10 08:55:46;;;;;;;3.17;0.93;;;5.80;87.80;;;;;;5075569;28;20029;-71
2020/12/10 08:58:29;;;;;;;1.55;1.00;;;5.90;85.30;;;;;;5078638;28;20023;-72
2020/12/10 09:00:56;;;;;;;1.27;0.95;;;5.90;86.60;;;;;;5078751;28;20059;-71
2020/12/10 09:03:22;;;;;;;1.58;0.80;;;6.00;85.90;;;;;;5078443;28;20023;-72
2020/12/10 09:05:52;;;;;;;1.38;0.93;;;6.00;84.50;;;;;;5078285;28;20025;-71
2020/12/10 09:08:18;;;;;;;1.00;0.68;;;6.10;84.90;;;;;;5078379;28;20028;-71
2020/12/10 09:10:44;;;;;;;2.22;0.77;;;6.20;84.60;;;;;;5078290;28;20028;-71
2020/12/10 09:13:10;;;;;;;1.73;1.10;;;6.30;82.90;;;;;;5078202;28;20317;-72
2020/12/10 09:15:37;;;;;;;0.70;0.50;;;6.30;82.00;;;;;;5060483;28;20031;-72
2020/12/10 09:18:03;;;;;;;1.33;0.70;;;6.40;81.70;;;;;;5077393;28;20074;-72
2020/12/10 09:20:32;;;;;;;2.13;0.82;;;6.50;82.10;;;;;;5078170;28;20029;-72
2020/12/10 09:22:59;;;;;;;1.23;0.60;;;6.60;81.60;;;;;;5078066;28;20025;-71
2020/12/10 09:25:31;;;;;;;1.20;0.70;;;6.70;81.80;;;;;;5078065;28;20061;-71
2020/12/10 09:27:57;;;;;;;1.00;0.70;;;6.80;82.50;;;;;;5076079;28;20043;-71
2020/12/10 09:30:23;;;;;;;1.30;0.70;;;6.90;79.70;;;;;;5077869;28;20103;-72
2020/12/10 09:32:49;;;;;;;1.02;0.80;;;7.00;79.00;;;;;;5077850;28;20032;-71
2020/12/10 09:35:16;;;;;;;1.75;0.80;;;7.10;78.20;;;;;;5060182;28;20037;-72
2020/12/10 09:37:45;;;;;;;1.88;1.20;;;7.10;80.30;;;;;;5077647;28;20028;-72
2020/12/10 09:40:13;;;;;;;1.60;1.20;;;7.20;79.30;;;;;;5077894;28;20038;-72
2020/12/10 09:42:47;;;;;;;1.05;0.80;;;7.20;80.40;;;;;;5077663;28;20021;-71
2020/12/10 09:45:14;;;;;;;2.30;1.58;;;7.30;78.00;;;;;;5060151;28;20112;-72
2020/12/10 09:47:42;;;;;;;4.05;1.80;;;7.30;79.00;;;;;;5077489;28;20032;-72
2020/12/10 09:50:19;;;;;;;3.78;2.40;;;7.40;78.90;;;;;;5076860;28;20033;-72
2020/12/10 09:58:01;;;;;;;3.17;2.65;;;7.50;82.40;;;;;;5077747;28;20110;-72
2020/12/10 10:00:27;;;;;;;3.10;2.80;;;7.40;81.00;;;;;;5059877;28;20056;-72
2020/12/10 10:02:52;;;;;;;7.07;4.43;;;7.40;81.40;;;;;;5077308;28;20021;-72
2020/12/10 10:05:18;;;;;;;6.68;4.60;;;7.40;81.30;;;;;;5076806;28;20029;-72
2020/12/10 10:07:44;;;;;;;4.65;4.10;;;7.40;83.10;;;;;;5080624;28;20046;-72
2020/12/10 10:10:10;;;;;;;5.80;3.65;;;7.40;83.00;;;;;;5072116;28;20140;-72
2020/12/10 10:12:37;;;;;;;3.20;2.70;;;7.40;82.70;;;;;;5097368;28;20035;-72
2020/12/10 10:15:03;;;;;;;5.10;4.38;;;7.50;82.10;;;;;;5079524;28;20028;-72
2020/12/10 10:17:28;;;;;;;7.22;5.72;;;7.50;85.20;;;;;;5097348;28;20035;-72
2020/12/10 10:20:02;;;;;;;8.55;6.60;;;7.60;83.30;;;;;;5097512;28;20028;-72
2020/12/10 10:22:31;;;;;;;6.78;6.07;;;7.60;83.10;;;;;;5097453;28;20450;-72
2020/12/10 10:24:58;;;;;;;6.88;6.22;;;7.50;83.60;;;;;;5097161;28;20062;-72
2020/12/10 10:27:26;;;;;;;7.47;6.65;;;7.60;83.70;;;;;;5097053;28;20086;-72
2020/12/10 10:29:54;;;;;;;8.45;6.60;;;7.50;83.50;;;;;;5097386;28;20048;-72
2020/12/10 10:32:23;;;;;;;7.28;6.28;;;7.40;83.70;;;;;;5097083;28;20515;-71
2020/12/10 10:34:54;;;;;;;9.15;6.40;;;7.40;85.00;;;;;;5062747;28;20073;-70
2020/12/10 10:37:22;;;;;;;6.47;5.78;;;7.50;83.90;;;;;;5079937;28;20400;-71
2020/12/10 10:39:50;;;;;;;7.75;5.65;;;7.50;83.50;;;;;;5079095;28;20312;-70
2020/12/10 10:42:16;;;;;;;7.32;5.80;;;7.50;83.40;;;;;;5096928;28;20085;-72
2020/12/10 10:44:42;;;;;;;6.43;5.68;;;7.50;83.10;;;;;;5096885;28;20036;-70
2020/12/10 10:47:09;;;;;;;7.13;6.03;;;7.50;83.50;;;;;;5079118;28;20434;-72
2020/12/10 10:49:35;;;;;;;5.68;4.75;;;7.50;83.10;;;;;;5097071;28;20020;-71
2020/12/10 10:52:24;;;;;;;5.50;4.75;;;7.50;83.60;;;;;;5097069;28;20385;-72
2020/12/10 10:54:49;;;;;;;7.22;5.30;;;7.60;84.00;;;;;;5079256;28;20376;-72
2020/12/10 10:57:16;;;;;;;5.28;4.50;;;7.70;81.80;;;;;;5097007;28;20340;-72
2020/12/10 10:59:42;;;;;;;5.47;4.35;;;7.90;81.50;;;;;;5096828;28;20044;-71
2020/12/10 11:02:08;;;;;;;6.65;5.05;;;8.00;80.90;;;;;;5096762;28;20031;-72
2020/12/10 11:04:34;;;;;;;5.82;5.25;;;8.00;79.80;;;;;;5096684;28;20437;-72
2020/12/10 11:07:03;;;;;;;6.80;5.97;;;8.20;80.10;;;;;;5096732;28;20031;-72
2020/12/10 11:09:49;;;;;;;9.13;5.90;;;8.20;79.70;;;;;;5097305;28;20031;-72
2020/12/10 11:12:15;;;;;;;7.68;6.88;;;8.20;80.20;;;;;;5100698;28;20059;-72
2020/12/10 11:14:41;;;;;;;9.00;6.80;;;8.10;81.30;;;;;;5100767;28;20411;-72
2020/12/10 11:17:09;;;;;;;7.47;6.35;;;7.90;82.30;;;;;;5100725;28;20115;-72
2020/12/10 11:19:37;;;;;;;10.95;6.75;;;7.90;81.50;;;;;;5101051;28;20024;-72
2020/12/10 11:22:03;;;;;;;7.55;6.28;;;7.90;81.60;;;;;;5100655;28;20024;-72
2020/12/10 11:24:29;;;;;;;6.97;6.38;;;7.90;81.10;;;;;;5100683;28;20107;-72
2020/12/10 11:27:16;;;;;;;7.47;5.97;;;7.90;82.00;;;;;;5099613;28;20053;-72
2020/12/10 11:29:44;;;;;;;8.73;6.43;;;7.90;82.00;;;;;;5065900;28;20038;-72
2020/12/10 11:32:09;;;;;;;6.93;6.22;;;7.90;81.20;;;;;;5099923;28;20036;-72
2020/12/10 11:34:35;;;;;;;6.53;5.50;;;7.90;82.20;;;;;;5082376;28;20023;-72
2020/12/10 11:37:00;;;;;;;9.00;5.97;;;7.70;82.40;;;;;;5100385;28;20039;-72
2020/12/10 11:39:26;;;;;;;7.47;5.80;;;7.80;84.30;;;;;;5100391;28;20435;-72
2020/12/10 11:41:52;;;;;;;8.98;5.80;;;7.70;82.00;;;;;;5100269;28;20024;-72
2020/12/10 11:44:24;;;;;;;8.55;5.90;;;7.60;83.20;;;;;;5100198;28;20289;-72
2020/12/10 11:46:50;;;;;;;5.60;5.00;;;7.50;83.90;;;;;;5099631;28;20070;-72
2020/12/10 11:49:41;;;;;;;10.13;6.35;;;7.40;84.90;;;;;;5100554;28;20028;-72
2020/12/10 11:52:07;;;;;;;7.30;5.82;;;7.30;84.00;;;;;;5099552;28;20024;-72
2020/12/10 11:54:33;;;;;;;6.47;5.88;;;7.40;83.80;;;;;;5100332;28;20517;-72
2020/12/10 11:57:02;;;;;;;8.10;6.63;;;7.30;83.30;;;;;;5099952;28;20358;-72
2020/12/10 11:59:28;;;;;;;7.22;6.28;;;7.30;84.90;;;;;;5081403;28;20044;-72
2020/12/10 12:02:15;;;;;;;8.85;7.22;;;7.20;83.90;;;;;;5099865;28;20032;-72
2020/12/10 12:05:00;;;;;;;10.37;7.50;;;7.30;84.80;;;;;;5099255;28;20033;-72
2020/12/10 12:07:27;;;;;;;8.80;6.28;;;7.30;84.40;;;;;;5099694;28;20416;-72
2020/12/10 12:09:52;;;;;;;7.20;6.13;;;7.30;84.40;;;;;;5099788;28;20016;-72
2020/12/10 12:12:20;;;;;;;7.05;6.20;;;7.30;83.80;;;;;;5099707;28;20404;-72
2020/12/10 12:14:48;;;;;;;7.50;6.00;;;7.30;84.60;;;;;;5099025;28;20040;-72
2020/12/10 12:17:14;;;;;;;7.63;5.50;;;7.40;83.90;;;;;;5099566;28;20439;-72
2020/12/10 12:19:42;;;;;;;6.45;5.05;;;7.30;83.70;;;;;;5099839;28;20042;-72
2020/12/10 12:22:08;;;;;;;5.60;4.60;;;7.40;83.30;;;;;;5098245;28;20024;-72
2020/12/10 12:24:33;;;;;;;6.53;5.07;;;7.40;83.40;;;;;;5099462;28;20194;-72
2020/12/10 12:27:28;;;;;;;5.45;4.88;;;7.40;82.50;;;;;;5099835;28;20115;-72
2020/12/10 12:29:54;;;;;;;6.13;5.22;;;7.40;83.10;;;;;;5088603;28;20123;-72
2020/12/10 12:32:20;;;;;;;6.53;5.28;;;7.40;83.70;;;;;;5099382;28;20048;-72
2020/12/10 12:34:47;;;;;;;6.20;5.20;;;7.50;82.90;;;;;;5081301;28;20028;-72
2020/12/10 12:37:13;;;;;;;6.22;5.63;;;7.50;84.60;;;;;;5099210;28;20127;-72
2020/12/10 12:39:38;;;;;;;7.30;5.43;;;7.40;85.40;;;;;;5099703;28;20120;-72
2020/12/10 12:42:08;;;;;;;11.13;6.10;;;7.40;85.10;;;;;;5099331;28;20031;-72
2020/12/10 12:44:53;;;;;;;6.82;5.57;;;7.40;84.40;;;;;;5098272;28;20036;-72
2020/12/10 12:47:19;;;;;;;7.68;6.00;;;7.40;84.50;;;;;;5079178;28;20051;-70
2020/12/10 12:49:45;;;;;;;7.90;5.82;;;7.40;83.90;;;;;;5064545;28;20024;-70
2020/12/10 12:52:16;;;;;;;6.72;5.57;;;7.40;83.60;;;;;;5081486;28;20316;-70
2020/12/10 12:55:01;;;;;;;10.25;6.13;;;7.40;84.00;;;;;;5099168;28;20028;-71
2020/12/10 12:57:27;;;;;;;7.20;6.05;;;7.30;84.00;;;;;;5080795;28;20040;-70
2020/12/10 12:59:56;;;;;;;8.05;5.50;;;7.20;84.60;;;;;;5098906;28;20049;-71
2020/12/10 13:02:23;;;;;;;5.80;5.20;;;7.30;85.70;;;;;;5098785;28;20052;-71
2020/12/10 13:04:49;;;;;;;7.35;5.82;;;7.30;85.10;;;;;;5098675;28;20324;-72
2020/12/10 13:07:21;;;;;;;6.82;4.88;;;7.30;85.30;;;;;;5080586;28;20034;-72
2020/12/10 13:09:48;;;;;;;6.32;4.68;;;7.40;85.10;;;;;;5093496;28;20043;-72
2020/12/10 13:12:23;;;;;;;6.57;5.18;;;7.40;85.10;;;;;;5098554;28;20066;-72